Del Rio International Airport
KDRT : now visible

Airfield :











YOU CAN JOIN US ON...

 
LOGIN :

Register | Disclaimer

   EN    FR    IT 

 









Legend :    VFR   Marginal VFR   IFR   Intensive IFR   Very Intensive IFR
Visi :
Ceiling :
>= 8 km
>= 3000ft
5 to 8 km
1000 to 3000 ft
1500m to 5 km
500 to 1000 ft
800 to 1500m
200 to 500 ft
< 800m
< 200 ft
Symbols :   Thunderstorms  Fog  Heavy snow  Heavy precipitations  Wind > 20 kt






- Airport Elevation : 1002 ft


KDRT - Del Rio International

CURRENT METAR :
  • 081853Z AUTO 00000KT 10SM CLR 32/17 A2990 RMK AO2 SLP110 T03220172

EXPIRED METARs :
  • 081753Z AUTO 00000KT 10SM CLR 31/20 A2993 RMK AO2 SLP117 T03060200 10322 20228 50001
  • 081653Z AUTO 15006KT 10SM CLR 29/22 A2994 RMK AO2 SLP121 T02940217

TAF KDRT
Valid from the 08 at 18:00 until the 09 at 18:00 UTC


081720Z 0818/0918 15005KT P6SM BKN250
FM091100 03005KT 6SM BR BKN100 BKN250



MET'MAP, your aeronautical weather chart ! - Copyright ORBIFLY December 2007 - Disclaimer

ORBIFLY MET'MAP TEAM :

Programming & Development : Alexandra Zaïnal
Concept & original design : Baudouin d'Aumeries
Assistance for programming : Marc-Olivier Méhu
Technical & hardware support : Manuel Goepfert

Contact : metmap@orbifly.com




SOURCES & CREDITS :

   NOAA       Earth
Advisory